Time;durP1;ratioP1;P1;durP2;ratioP2;P2;SDS_P1;SDS_P2;PMS_P1;PMS_P2;Temp;Humidity;BMP_temperature;BMP_pressure;BME280_temperature;BME280_humidity;BME280_pressure;Samples;Min_cycle;Max_cycle;Signal;HPM_P1;HPM_P2
2021/03/16 00:03:03;;;;;;;2.63;2.22;;;;;;;3.24;72.37;99537.03;10545819;28;20143;-62
2021/03/16 00:08:11;;;;;;;5.15;3.00;;;;;;;3.14;73.03;99535.38;10529542;28;20048;-63
2021/03/16 00:13:12;;;;;;;3.08;2.88;;;;;;;3.12;73.14;99538.00;10527319;28;20464;-63
2021/03/16 00:18:15;;;;;;;4.10;2.70;;;;;;;3.17;72.96;99541.41;10526565;28;20379;-63
2021/03/16 00:23:18;;;;;;;5.57;3.03;;;;;;;3.08;73.45;99549.28;10543735;28;20040;-63
2021/03/16 00:28:19;;;;;;;3.88;3.28;;;;;;;3.05;73.50;99554.50;10544810;28;20056;-63
2021/03/16 00:33:20;;;;;;;2.67;2.47;;;;;;;3.18;73.17;99561.31;10543801;28;20048;-62
2021/03/16 00:38:22;;;;;;;6.30;3.55;;;;;;;3.13;73.33;99570.88;10543673;28;20044;-63
2021/03/16 00:43:23;;;;;;;4.60;4.20;;;;;;;3.05;73.57;99572.69;10543545;28;20131;-65
2021/03/16 00:48:24;;;;;;;5.07;4.60;;;;;;;3.16;73.33;99580.41;10543271;28;20055;-65
2021/03/16 00:53:29;;;;;;;5.65;4.90;;;;;;;3.12;73.72;99576.09;10544092;28;20036;-63
2021/03/16 00:58:39;;;;;;;5.57;5.03;;;;;;;3.04;73.95;99583.94;10529131;28;20048;-63
2021/03/16 01:03:41;;;;;;;6.28;5.30;;;;;;;3.12;73.26;99578.69;10543408;28;20077;-63
2021/03/16 01:08:42;;;;;;;6.28;5.68;;;;;;;3.17;73.58;99582.13;10544356;28;20047;-64
2021/03/16 01:13:43;;;;;;;6.32;5.80;;;;;;;3.15;73.48;99589.06;10544027;28;20048;-63
2021/03/16 01:18:45;;;;;;;5.85;5.35;;;;;;;3.02;73.92;99583.13;10543457;28;20107;-64
2021/03/16 01:23:46;;;;;;;6.80;5.43;;;;;;;3.15;73.57;99591.66;10544017;28;20048;-62
2021/03/16 01:28:48;;;;;;;6.22;5.43;;;;;;;3.16;73.59;99594.25;10543436;28;20048;-64
2021/03/16 01:33:49;;;;;;;6.10;5.50;;;;;;;3.18;73.62;99604.59;10524227;28;20044;-64
2021/03/16 01:38:50;;;;;;;7.93;5.93;;;;;;;3.14;73.77;99608.97;10544290;28;20116;-64
2021/03/16 01:43:51;;;;;;;6.55;5.95;;;;;;;3.21;73.72;99617.56;10542121;28;20416;-63
2021/03/16 01:48:53;;;;;;;6.50;5.90;;;;;;;3.27;73.58;99607.97;10523939;28;20036;-61
2021/03/16 01:53:54;;;;;;;7.25;6.55;;;;;;;3.34;73.67;99619.19;10524030;28;20085;-63
2021/03/16 01:59:00;;;;;;;7.18;6.05;;;;;;;3.21;73.89;99607.19;10542768;28;20055;-62
2021/03/16 02:04:19;;;;;;;7.38;6.20;;;;;;;3.31;73.71;99610.56;10544026;28;20052;-63
2021/03/16 02:09:49;;;;;;;6.28;5.70;;;;;;;3.25;73.87;99611.47;10543441;28;20040;-62
2021/03/16 02:15:16;;;;;;;6.18;5.57;;;;;;;3.32;73.46;99594.09;10543011;28;20048;-63
2021/03/16 02:20:48;;;;;;;6.35;5.82;;;;;;;3.22;74.17;99608.91;10545561;28;20493;-66
2021/03/16 02:26:14;;;;;;;8.75;7.10;;;;;;;3.26;73.91;99610.59;10528220;28;20122;-62
2021/03/16 02:31:37;;;;;;;6.40;5.75;;;;;;;3.14;74.03;99611.56;10545292;28;20044;-65
2021/03/16 02:37:01;;;;;;;5.60;5.10;;;;;;;3.27;73.31;99617.50;10546866;28;20044;-63
2021/03/16 02:42:23;;;;;;;4.63;4.22;;;;;;;3.26;73.35;99623.59;10546154;28;20087;-64
2021/03/16 02:47:44;;;;;;;6.35;5.10;;;;;;;3.39;72.84;99632.13;10557403;28;20044;-65
2021/03/16 02:53:05;;;;;;;3.83;3.47;;;;;;;3.28;72.84;99632.25;10556134;28;20052;-64
2021/03/16 02:58:27;;;;;;;4.25;3.83;;;;;;;3.12;73.43;99651.41;10552824;28;20040;-64
2021/03/16 03:03:47;;;;;;;6.80;4.70;;;;;;;3.13;73.99;99655.72;10552041;28;20080;-65
2021/03/16 03:09:11;;;;;;;5.30;4.90;;;;;;;2.94;74.53;99660.19;10551867;28;20055;-65
2021/03/16 03:14:33;;;;;;;5.28;4.88;;;;;;;3.01;74.30;99661.88;10551600;28;20052;-64
2021/03/16 03:19:53;;;;;;;6.03;5.03;;;;;;;3.12;73.76;99669.59;10551092;28;20040;-63
2021/03/16 03:25:28;;;;;;;6.03;5.47;;;;;;;3.09;73.70;99680.00;10554208;28;20047;-65
2021/03/16 03:30:49;;;;;;;5.28;4.78;;;;;;;3.19;73.10;99679.06;10554983;28;20040;-62
2021/03/16 03:36:10;;;;;;;7.13;5.60;;;;;;;3.14;73.59;99689.47;10553381;28;20354;-63
2021/03/16 03:41:32;;;;;;;6.00;5.50;;;;;;;2.83;74.57;99695.75;10551982;28;20040;-65
2021/03/16 03:46:53;;;;;;;6.30;5.65;;;;;;;2.82;74.83;99707.84;10554515;28;20052;-63
2021/03/16 03:52:14;;;;;;;6.05;4.20;;;;;;;2.70;74.37;99716.59;10538945;28;20052;-62
2021/03/16 03:57:35;;;;;;;3.88;3.45;;;;;;;2.71;74.16;99713.13;10555271;28;20056;-63
2021/03/16 04:02:55;;;;;;;7.28;5.35;;;;;;;2.33;75.62;99725.38;10555741;28;20131;-64
2021/03/16 04:08:17;;;;;;;6.25;5.65;;;;;;;2.41;75.81;99736.59;10555850;28;20048;-63
2021/03/16 04:13:38;;;;;;;7.13;4.95;;;;;;;2.51;75.55;99746.06;10555894;28;20111;-63
2021/03/16 04:18:59;;;;;;;5.63;4.75;;;;;;;2.58;75.41;99746.91;10551347;28;20037;-62
2021/03/16 04:24:20;;;;;;;4.70;4.30;;;;;;;2.50;75.49;99739.16;10550359;28;20055;-63
2021/03/16 04:29:39;;;;;;;5.25;4.78;;;;;;;2.55;75.77;99752.97;10554118;28;20040;-65
2021/03/16 04:34:59;;;;;;;5.57;5.07;;;;;;;2.58;75.68;99759.91;10551710;28;20048;-63
2021/03/16 04:40:20;;;;;;;6.15;4.90;;;;;;;2.59;75.77;99762.47;10550244;28;20481;-62
2021/03/16 04:45:39;;;;;;;5.07;4.28;;;;;;;2.52;74.61;99778.91;10550071;28;20052;-65
2021/03/16 04:50:59;;;;;;;4.18;3.03;;;;;;;2.55;73.07;99784.09;10547177;28;20044;-63
2021/03/16 04:56:18;;;;;;;4.90;1.98;;;;;;;2.54;72.76;99782.38;10549173;28;20052;-63
2021/03/16 05:01:40;;;;;;;2.70;2.05;;;;;;;2.67;73.08;99797.06;10547330;28;20044;-63
2021/03/16 05:06:59;;;;;;;3.75;2.55;;;;;;;2.67;72.71;99803.97;10546551;28;20048;-62
2021/03/16 05:12:19;;;;;;;2.20;1.95;;;;;;;2.64;72.22;99815.22;10545875;28;20494;-63
2021/03/16 05:17:39;;;;;;;7.93;2.25;;;;;;;2.53;72.08;99822.19;10547198;28;20154;-63
2021/03/16 05:22:59;;;;;;;3.83;1.75;;;;;;;2.56;71.23;99827.34;10546781;28;20134;-65
2021/03/16 05:28:19;;;;;;;2.78;1.60;;;;;;;2.51;71.09;99835.13;10547530;28;20048;-64
2021/03/16 05:33:38;;;;;;;3.47;2.40;;;;;;;2.47;70.61;99837.75;10545835;28;20097;-63
2021/03/16 05:38:58;;;;;;;2.80;2.00;;;;;;;2.50;70.89;99851.59;10546492;28;20048;-65
2021/03/16 05:44:18;;;;;;;3.08;2.60;;;;;;;2.36;71.07;99868.91;10548094;28;20040;-64
2021/03/16 05:49:41;;;;;;;3.17;2.88;;;;;;;2.62;70.62;99871.47;10545760;28;20040;-65
2021/03/16 05:55:03;;;;;;;4.88;2.95;;;;;;;2.71;70.83;99880.97;10546182;28;20048;-64
2021/03/16 06:00:23;;;;;;;5.32;4.82;;;;;;;2.63;69.82;99883.56;10548257;28;20044;-63
2021/03/16 06:05:43;;;;;;;9.98;6.68;;;;;;;2.51;69.08;99892.22;10547894;28;20434;-63
2021/03/16 06:11:07;;;;;;;3.72;2.72;;;;;;;2.58;68.93;99902.63;10550113;28;20071;-64
2021/03/16 06:16:27;;;;;;;2.88;2.13;;;;;;;2.65;67.54;99912.09;10549871;28;20405;-63
2021/03/16 06:22:03;;;;;;;2.75;2.17;;;;;;;2.70;66.70;99915.53;10552190;28;20044;-65
2021/03/16 06:27:27;;;;;;;5.75;3.75;;;;;;;2.63;67.21;99924.22;10554963;28;20052;-63
2021/03/16 06:32:46;;;;;;;3.10;1.42;;;;;;;2.79;65.98;99931.13;10555414;28;20048;-63
2021/03/16 06:38:09;;;;;;;3.90;2.58;;;;;;;2.64;66.23;99933.72;10539153;28;20048;-63
2021/03/16 06:43:29;;;;;;;4.85;2.88;;;;;;;2.72;65.15;99939.78;10555211;28;20074;-64
2021/03/16 06:48:48;;;;;;;3.33;2.17;;;;;;;2.80;65.37;99952.75;10555576;28;20044;-63
2021/03/16 06:54:11;;;;;;;5.07;2.70;;;;;;;2.89;64.96;99953.59;10555854;28;20047;-66
2021/03/16 06:59:32;;;;;;;3.00;1.27;;;;;;;2.82;64.01;99964.84;10541667;28;20044;-64
2021/03/16 07:04:51;;;;;;;2.33;1.33;;;;;;;2.83;64.54;99963.97;10555918;28;20505;-63
2021/03/16 07:10:12;;;;;;;2.75;1.50;;;;;;;2.98;64.25;99976.09;10554415;28;20072;-64
2021/03/16 07:15:32;;;;;;;5.55;1.40;;;;;;;2.96;64.96;99983.00;10554187;28;20417;-64
2021/03/16 07:20:57;;;;;;;3.20;1.75;;;;;;;2.90;65.99;99991.66;10539170;28;20119;-63
2021/03/16 07:26:18;;;;;;;3.55;1.98;;;;;;;2.92;66.95;99997.75;10554933;28;20056;-64
2021/03/16 07:31:41;;;;;;;5.18;3.28;;;;;;;2.81;68.16;100012.44;10554215;28;20502;-65
2021/03/16 07:37:02;;;;;;;9.88;4.53;;;;;;;2.73;69.23;100009.84;10551685;28;20055;-63
2021/03/16 07:42:22;;;;;;;9.23;4.20;;;;;;;2.89;68.92;100015.91;10555210;28;20044;-65
2021/03/16 07:47:42;;;;;;;7.88;5.35;;;;;;;2.91;69.01;100019.34;10553160;28;20494;-65
2021/03/16 07:53:03;;;;;;;15.50;5.78;;;;;;;2.68;69.84;100023.69;10552546;28;20044;-65
2021/03/16 07:58:25;;;;;;;10.20;5.25;;;;;;;2.82;69.23;100024.56;10551128;28;20048;-64
2021/03/16 08:03:53;;;;;;;6.93;5.32;;;;;;;2.92;69.64;100039.28;10549879;28;20052;-64
2021/03/16 08:09:23;;;;;;;7.10;4.80;;;;;;;3.02;68.60;100043.59;10550211;28;20044;-64
2021/03/16 08:14:42;;;;;;;6.88;5.60;;;;;;;3.00;68.58;100049.63;10551457;28;20048;-65
2021/03/16 08:20:04;;;;;;;10.60;6.97;;;;;;;3.09;69.25;100059.16;10535201;28;20080;-65
2021/03/16 08:25:24;;;;;;;7.35;4.38;;;;;;;3.23;67.96;100057.41;10550480;28;20043;-64
2021/03/16 08:30:44;;;;;;;5.90;4.10;;;;;;;3.51;66.71;100066.00;10552889;28;20098;-63
2021/03/16 08:36:04;;;;;;;5.18;3.90;;;;;;;3.46;66.49;100076.44;10551682;28;20126;-64
2021/03/16 08:41:24;;;;;;;6.35;3.58;;;;;;;3.50;67.06;100074.69;10548290;28;20509;-64
2021/03/16 08:46:44;;;;;;;4.93;2.67;;;;;;;3.52;65.15;100086.78;10548812;28;20056;-64
2021/03/16 08:52:04;;;;;;;6.13;3.38;;;;;;;3.66;65.11;100101.50;10548783;28;20406;-64
2021/03/16 08:57:27;;;;;;;5.45;2.92;;;;;;;3.47;64.34;100106.72;10549433;28;20486;-63
2021/03/16 09:02:46;;;;;;;5.72;3.42;;;;;;;3.48;66.00;100097.19;10549012;28;20080;-64
2021/03/16 09:08:09;;;;;;;5.82;2.50;;;;;;;3.71;64.28;100103.19;10551373;28;20052;-65
2021/03/16 09:13:29;;;;;;;4.45;3.00;;;;;;;3.76;64.07;100118.78;10534664;28;20048;-64
2021/03/16 09:18:49;;;;;;;4.07;3.10;;;;;;;3.87;64.31;100114.44;10534158;28;20048;-64
2021/03/16 09:24:10;;;;;;;3.13;1.90;;;;;;;3.86;62.74;100123.09;10553415;28;20130;-63
2021/03/16 09:29:34;;;;;;;3.40;1.85;;;;;;;4.14;61.48;100131.66;10549860;28;20048;-64
2021/03/16 09:35:08;;;;;;;3.67;1.52;;;;;;;4.08;61.91;100128.25;10549054;28;20047;-64
2021/03/16 09:40:37;;;;;;;4.32;1.58;;;;;;;4.01;61.90;100143.84;10550044;28;20044;-65
2021/03/16 09:45:51;;;;;;;6.20;2.58;;;;;;;4.25;61.87;100139.41;10530717;28;20055;-65
2021/03/16 09:50:54;;;;;;;3.33;2.17;;;;;;;4.55;61.39;100141.88;10548563;28;20036;-65
2021/03/16 09:55:57;;;;;;;3.88;1.70;;;;;;;4.79;60.77;100134.81;10552912;28;20047;-65
2021/03/16 10:01:04;;;;;;;2.22;1.48;;;;;;;4.85;59.16;100139.94;10555546;28;20047;-64
2021/03/16 10:06:07;;;;;;;3.75;1.65;;;;;;;4.91;60.20;100134.69;10535900;28;20063;-64
2021/03/16 10:11:09;;;;;;;4.60;1.80;;;;;;;4.87;60.75;100133.00;10554254;28;20044;-64
2021/03/16 10:16:12;;;;;;;3.80;1.65;;;;;;;4.84;59.82;100138.22;10537032;28;20044;-64
2021/03/16 10:21:15;;;;;;;4.75;2.10;;;;;;;5.19;58.73;100137.13;10556818;28;20040;-64
2021/03/16 10:26:16;;;;;;;2.58;1.42;;;;;;;5.36;58.95;100150.88;10555380;28;20131;-64
2021/03/16 10:31:22;;;;;;;2.80;1.70;;;;;;;5.12;57.96;100148.44;10556667;28;20044;-65
2021/03/16 10:36:24;;;;;;;3.15;1.70;;;;;;;5.36;57.51;100155.19;10555947;28;20051;-64
2021/03/16 10:41:25;;;;;;;3.75;1.70;;;;;;;5.55;56.24;100151.56;10557376;28;20044;-65
2021/03/16 10:46:26;;;;;;;3.60;1.65;;;;;;;5.40;57.78;100165.59;10558509;28;20067;-65
2021/03/16 10:51:27;;;;;;;5.32;1.90;;;;;;;5.44;58.39;100156.00;10558623;28;20036;-64
2021/03/16 10:56:29;;;;;;;4.18;1.58;;;;;;;5.54;56.91;100161.13;10559953;28;20074;-64
2021/03/16 11:01:30;;;;;;;3.40;1.40;;;;;;;6.26;56.13;100156.91;10560535;28;20094;-64
2021/03/16 11:06:31;;;;;;;2.33;1.20;;;;;;;6.01;55.47;100162.41;10558877;28;20043;-65
2021/03/16 11:11:32;;;;;;;3.72;1.75;;;;;;;6.10;55.48;100160.56;10560833;28;20517;-64
2021/03/16 11:16:34;;;;;;;3.45;1.67;;;;;;;5.68;56.04;100168.81;10560431;28;20412;-65
2021/03/16 11:21:36;;;;;;;4.47;1.98;;;;;;;5.55;56.99;100170.66;10562683;28;20044;-65
2021/03/16 11:26:37;;;;;;;3.70;1.73;;;;;;;5.57;56.30;100161.06;10561680;28;20043;-65
2021/03/16 11:31:38;;;;;;;3.05;1.80;;;;;;;5.51;57.00;100168.09;10560865;28;20081;-64
2021/03/16 11:36:59;;;;;;;3.58;2.00;;;;;;;5.38;56.75;100176.91;10561973;28;20103;-64
2021/03/16 11:42:19;;;;;;;3.15;1.38;;;;;;;5.26;57.08;100172.66;10560872;28;20100;-64
2021/03/16 11:47:39;;;;;;;4.75;1.80;;;;;;;5.22;57.37;100182.25;10560349;28;20044;-65
2021/03/16 11:53:00;;;;;;;4.45;1.98;;;;;;;5.13;57.22;100173.63;10560711;28;20044;-68
2021/03/16 11:58:20;;;;;;;5.22;1.98;;;;;;;5.08;56.70;100173.66;10556889;28;20044;-65
2021/03/16 12:03:40;;;;;;;4.20;2.53;;;;;;;5.27;57.91;100174.41;10558384;28;20048;-65
2021/03/16 12:09:01;;;;;;;4.82;2.00;;;;;;;5.28;56.94;100168.31;10557284;28;20048;-66
2021/03/16 12:14:21;;;;;;;2.33;1.70;;;;;;;5.27;57.47;100163.97;10556967;28;20118;-66
2021/03/16 12:19:41;;;;;;;5.30;1.83;;;;;;;5.17;57.64;100177.94;10528267;28;20037;-66
2021/03/16 12:25:03;;;;;;;4.57;2.45;;;;;;;5.39;56.73;100163.84;10473522;28;20044;-65
2021/03/16 12:30:23;;;;;;;5.25;1.83;;;;;;;5.42;57.29;100174.25;10474034;28;20049;-66
2021/03/16 12:35:46;;;;;;;3.53;2.35;;;;;;;5.43;57.41;100160.34;10479273;28;20053;-65
2021/03/16 12:41:06;;;;;;;3.60;2.22;;;;;;;5.36;57.74;100173.44;10505652;28;20040;-66
2021/03/16 12:46:29;;;;;;;7.05;3.28;;;;;;;5.13;58.61;100163.19;10512299;28;20494;-66
2021/03/16 12:51:49;;;;;;;4.70;3.42;;;;;;;5.34;59.24;100162.16;10473481;28;20045;-66
2021/03/16 12:57:09;;;;;;;5.45;3.10;;;;;;;5.30;58.45;100170.00;10470569;28;20045;-65
2021/03/16 13:02:29;;;;;;;5.40;3.72;;;;;;;5.09;59.44;100172.81;10469827;28;20116;-66
2021/03/16 13:07:57;;;;;;;6.07;3.72;;;;;;;5.03;59.29;100184.09;10469762;28;20077;-66
2021/03/16 13:13:17;;;;;;;6.10;3.40;;;;;;;5.21;58.49;100182.25;10470506;28;20040;-67
2021/03/16 13:18:38;;;;;;;8.25;4.18;;;;;;;5.18;59.81;100182.25;10469262;28;20423;-66
2021/03/16 13:23:59;;;;;;;6.80;4.45;;;;;;;5.29;59.79;100196.09;10470288;28;20044;-64
2021/03/16 13:29:18;;;;;;;6.13;4.35;;;;;;;5.25;60.55;100182.22;10468888;28;20045;-65
2021/03/16 13:34:39;;;;;;;8.32;4.18;;;;;;;5.29;60.17;100188.28;10468894;28;20060;-65
2021/03/16 13:39:59;;;;;;;6.82;4.07;;;;;;;5.21;60.07;100193.53;10467072;28;20041;-66
2021/03/16 13:45:19;;;;;;;5.68;3.97;;;;;;;5.25;59.59;100197.00;10469469;28;20053;-66
2021/03/16 13:50:39;;;;;;;6.13;3.75;;;;;;;5.33;59.77;100192.59;10495113;28;20048;-66
2021/03/16 13:55:59;;;;;;;7.43;3.50;;;;;;;5.26;59.14;100198.72;10509459;28;20052;-66
2021/03/16 14:01:19;;;;;;;6.50;3.80;;;;;;;5.33;59.55;100195.19;10511710;28;20045;-65
2021/03/16 14:06:39;;;;;;;6.43;3.65;;;;;;;5.14;59.24;100196.22;10509098;28;20064;-65
2021/03/16 14:11:59;;;;;;;9.60;4.20;;;;;;;5.19;59.61;100208.34;10510426;28;20081;-63
2021/03/16 14:17:18;;;;;;;8.68;3.35;;;;;;;5.19;60.36;100208.34;10509882;28;20045;-65
2021/03/16 14:22:40;;;;;;;6.25;3.65;;;;;;;5.16;59.79;100208.34;10506340;28;20048;-65
2021/03/16 14:28:00;;;;;;;9.50;3.40;;;;;;;5.12;60.15;100226.63;10507100;28;20048;-65
2021/03/16 14:33:20;;;;;;;8.07;3.22;;;;;;;5.03;60.45;100227.53;10501172;28;20084;-64
2021/03/16 14:38:40;;;;;;;9.80;3.50;;;;;;;5.30;60.21;100229.94;10501152;28;20490;-65
2021/03/16 14:44:00;;;;;;;10.95;3.90;;;;;;;5.39;59.64;100231.63;10507112;28;20127;-65
2021/03/16 14:49:20;;;;;;;8.38;4.20;;;;;;;5.34;60.29;100232.53;10508744;28;20041;-66
2021/03/16 14:54:40;;;;;;;11.38;3.05;;;;;;;5.32;60.68;100228.22;10507164;28;20056;-63
2021/03/16 15:00:00;;;;;;;6.82;3.35;;;;;;;5.36;59.96;100229.06;10508190;28;20128;-65
2021/03/16 15:05:20;;;;;;;6.22;2.47;;;;;;;5.37;60.09;100233.41;10510233;28;20044;-65
2021/03/16 15:10:41;;;;;;;10.65;3.20;;;;;;;5.20;60.47;100227.44;10493190;28;20044;-66
2021/03/16 15:16:01;;;;;;;11.45;2.60;;;;;;;5.32;60.44;100233.44;10499864;28;20037;-65
2021/03/16 15:21:22;;;;;;;9.43;3.28;;;;;;;5.44;60.11;100224.63;10467011;28;20041;-65
2021/03/16 15:26:41;;;;;;;11.80;3.42;;;;;;;5.17;60.55;100225.69;10491872;28;20479;-65
2021/03/16 15:32:01;;;;;;;6.43;2.10;;;;;;;5.15;60.02;100234.44;10504524;28;20041;-65
2021/03/16 15:37:21;;;;;;;6.15;2.55;;;;;;;5.22;60.60;100237.00;10504931;28;20052;-66
2021/03/16 15:42:41;;;;;;;7.43;2.90;;;;;;;5.35;59.33;100237.75;10489203;28;20048;-64
2021/03/16 15:48:01;;;;;;;8.52;3.13;;;;;;;5.21;59.74;100230.03;10504901;28;20052;-65
2021/03/16 15:53:21;;;;;;;7.30;2.50;;;;;;;5.38;59.88;100226.44;10503532;28;20044;-66
2021/03/16 15:58:41;;;;;;;5.57;2.67;;;;;;;5.17;60.50;100235.25;10488807;28;20052;-64
2021/03/16 16:04:00;;;;;;;8.95;3.20;;;;;;;5.04;60.63;100230.13;10489245;28;20549;-66
2021/03/16 16:09:22;;;;;;;11.68;3.70;;;;;;;5.26;60.28;100228.25;10504412;28;20053;-66
2021/03/16 16:14:42;;;;;;;12.43;3.50;;;;;;;5.05;61.47;100242.31;10503716;28;20363;-66
2021/03/16 16:20:03;;;;;;;6.70;3.13;;;;;;;4.99;61.88;100237.09;10503346;28;20044;-66
2021/03/16 16:25:36;;;;;;;9.27;4.28;;;;;;;5.04;62.10;100235.34;10506668;28;20040;-66
2021/03/16 16:30:56;;;;;;;11.50;3.78;;;;;;;5.23;61.52;100232.63;10478663;28;20045;-66
2021/03/16 16:36:16;;;;;;;10.30;3.70;;;;;;;5.16;62.46;100238.75;10484448;28;20045;-66
2021/03/16 16:41:36;;;;;;;6.38;2.90;;;;;;;5.02;61.97;100244.06;10502611;28;20414;-65
2021/03/16 16:46:56;;;;;;;9.43;4.80;;;;;;;5.04;62.04;100240.53;10503142;28;20045;-64
2021/03/16 16:52:16;;;;;;;9.32;4.47;;;;;;;4.95;62.68;100240.59;10490445;28;20041;-66
2021/03/16 16:57:36;;;;;;;6.40;4.40;;;;;;;4.95;62.71;100238.00;10460228;28;20041;-64
2021/03/16 17:02:56;;;;;;;8.18;3.47;;;;;;;4.99;62.53;100238.84;10462914;28;20430;-64
2021/03/16 17:08:16;;;;;;;7.10;3.80;;;;;;;5.18;61.67;100243.09;10462489;28;20069;-66
2021/03/16 17:13:37;;;;;;;8.38;4.30;;;;;;;5.17;61.58;100250.91;10450825;28;20048;-65
2021/03/16 17:19:00;;;;;;;11.85;4.47;;;;;;;5.10;61.93;100251.84;10486015;28;20041;-65
2021/03/16 17:24:21;;;;;;;8.98;4.78;;;;;;;5.16;61.17;100254.38;10503341;28;20044;-64
2021/03/16 17:29:41;;;;;;;10.13;5.43;;;;;;;5.19;61.27;100254.38;10503788;28;20044;-65
2021/03/16 17:35:02;;;;;;;11.88;4.65;;;;;;;5.13;61.34;100257.00;10505369;28;20072;-65
2021/03/16 17:40:23;;;;;;;8.57;4.78;;;;;;;4.86;62.26;100256.28;10503812;28;20044;-65
2021/03/16 17:45:43;;;;;;;14.27;4.55;;;;;;;4.70;62.67;100265.91;10504875;28;20048;-65
2021/03/16 17:51:03;;;;;;;7.20;4.95;;;;;;;4.95;61.89;100273.59;10502245;28;20044;-65
2021/03/16 17:56:23;;;;;;;8.82;4.50;;;;;;;4.92;61.87;100265.81;10502373;28;20048;-65
2021/03/16 18:01:43;;;;;;;8.30;6.15;;;;;;;4.80;62.61;100279.75;10505792;28;20453;-64
2021/03/16 18:07:03;;;;;;;10.68;6.88;;;;;;;4.61;62.66;100278.13;10504523;28;20428;-64
2021/03/16 18:12:28;;;;;;;12.68;7.28;;;;;;;4.53;62.87;100288.53;10520558;28;20127;-66
2021/03/16 18:17:48;;;;;;;11.20;6.30;;;;;;;4.66;62.63;100277.22;10550230;28;20416;-65
2021/03/16 18:23:09;;;;;;;6.65;3.78;;;;;;;4.58;62.59;100278.13;10552837;28;20044;-64
2021/03/16 18:28:29;;;;;;;7.78;4.88;;;;;;;4.70;62.46;100271.13;10553504;28;20058;-64
2021/03/16 18:33:49;;;;;;;6.97;3.85;;;;;;;4.73;61.83;100278.03;10553325;28;20048;-65
2021/03/16 18:39:09;;;;;;;4.50;3.03;;;;;;;4.96;60.45;100271.00;10552875;28;20044;-64
2021/03/16 18:44:30;;;;;;;16.58;10.48;;;;;;;4.94;60.61;100277.09;10554057;28;20052;-64
2021/03/16 18:49:50;;;;;;;13.68;10.20;;;;;;;4.98;60.19;100273.59;10554252;28;20047;-64
2021/03/16 18:55:10;;;;;;;7.95;4.22;;;;;;;4.81;60.82;100278.88;10538200;28;20052;-64
2021/03/16 19:00:29;;;;;;;7.40;3.85;;;;;;;4.64;61.38;100276.34;10555145;28;20048;-65
2021/03/16 19:05:52;;;;;;;10.82;3.70;;;;;;;4.38;62.17;100284.22;10539609;28;20048;-66
2021/03/16 19:11:13;;;;;;;7.63;2.63;;;;;;;4.36;62.60;100291.19;10540537;28;20040;-66
2021/03/16 19:16:33;;;;;;;9.52;5.25;;;;;;;4.57;63.33;100295.47;10552830;28;20052;-66
2021/03/16 19:21:54;;;;;;;5.10;2.50;;;;;;;4.36;62.82;100291.19;10551120;28;20119;-65
2021/03/16 19:27:14;;;;;;;3.40;1.40;;;;;;;4.21;62.73;100292.09;10550641;28;20052;-67
2021/03/16 19:32:34;;;;;;;4.78;2.00;;;;;;;4.13;63.33;100293.84;10505952;28;20443;-67
2021/03/16 19:37:54;;;;;;;3.30;1.50;;;;;;;3.85;63.67;100297.31;10504547;28;20044;-67
2021/03/16 19:43:19;;;;;;;2.40;1.30;;;;;;;3.92;62.80;100297.31;10507324;28;20080;-66
2021/03/16 19:48:39;;;;;;;5.97;1.35;;;;;;;3.74;63.55;100303.41;10508497;28;20045;-68
2021/03/16 19:53:59;;;;;;;2.58;1.33;;;;;;;3.64;64.33;100303.41;10507644;28;20044;-67
2021/03/16 19:59:19;;;;;;;3.83;1.70;;;;;;;3.64;64.07;100301.66;10506990;28;20040;-66
2021/03/16 20:04:39;;;;;;;3.63;1.60;;;;;;;3.89;63.97;100307.72;10506184;28;20052;-67
2021/03/16 20:09:59;;;;;;;4.22;1.67;;;;;;;4.11;63.22;100311.16;10507463;28;20502;-66
2021/03/16 20:15:19;;;;;;;5.63;2.10;;;;;;;3.95;64.05;100314.69;10507406;28;20052;-66
2021/03/16 20:20:39;;;;;;;1.83;1.35;;;;;;;3.86;64.46;100306.88;10505637;28;20045;-65
2021/03/16 20:25:59;;;;;;;4.00;1.75;;;;;;;3.86;64.60;100310.34;10505522;28;20076;-67
2021/03/16 20:31:19;;;;;;;4.78;1.55;;;;;;;3.86;64.77;100320.75;10505005;28;20044;-69
2021/03/16 20:36:39;;;;;;;3.92;1.65;;;;;;;3.79;64.65;100319.84;10507370;28;20052;-68
2021/03/16 20:41:59;;;;;;;4.10;2.22;;;;;;;3.85;63.84;100318.13;10505732;28;20048;-69
2021/03/16 20:47:18;;;;;;;8.48;1.67;;;;;;;3.89;63.59;100319.84;10509555;28;20371;-69
2021/03/16 20:52:39;;;;;;;3.78;1.33;;;;;;;3.93;63.55;100319.84;10506399;28;20498;-68
2021/03/16 20:57:59;;;;;;;2.67;1.40;;;;;;;3.92;64.12;100318.13;10505788;28;20052;-68
2021/03/16 21:03:20;;;;;;;2.67;1.50;;;;;;;3.79;64.69;100317.25;10505410;28;20044;-68
2021/03/16 21:08:40;;;;;;;3.47;1.50;;;;;;;3.79;64.68;100324.19;10504516;28;20155;-69
2021/03/16 21:14:00;;;;;;;4.10;1.92;;;;;;;3.75;65.21;100318.13;10504223;28;20498;-68
2021/03/16 21:19:23;;;;;;;5.85;2.17;;;;;;;3.67;65.40;100309.44;10494655;28;20048;-68
2021/03/16 21:24:43;;;;;;;4.85;1.80;;;;;;;3.71;65.43;100321.59;10494529;28;20048;-69
2021/03/16 21:30:05;;;;;;;6.65;1.77;;;;;;;3.57;66.36;100328.50;10503066;28;20048;-68
2021/03/16 21:35:26;;;;;;;5.10;1.80;;;;;;;3.66;66.47;100325.06;10504250;28;20048;-67
2021/03/16 21:40:46;;;;;;;3.80;2.40;;;;;;;3.42;67.43;100324.16;10510089;28;20049;-68
2021/03/16 21:46:06;;;;;;;4.97;2.78;;;;;;;3.67;66.64;100339.78;10488917;28;20056;-68
2021/03/16 21:51:26;;;;;;;10.35;2.72;;;;;;;3.50;67.03;100355.38;10494700;28;20048;-68
2021/03/16 21:56:46;;;;;;;4.93;2.42;;;;;;;3.39;67.95;100355.34;10516851;28;20044;-68
2021/03/16 22:02:06;;;;;;;4.65;2.90;;;;;;;3.63;67.77;100361.44;10510447;28;20462;-68
2021/03/16 22:07:26;;;;;;;5.40;2.53;;;;;;;3.50;67.71;100357.97;10512222;28;20048;-67
2021/03/16 22:12:46;;;;;;;6.25;2.25;;;;;;;3.51;68.00;100363.16;10516713;28;20049;-68
2021/03/16 22:18:07;;;;;;;11.13;2.92;;;;;;;3.32;68.09;100361.41;10520949;28;20044;-68
2021/03/16 22:23:30;;;;;;;3.83;1.90;;;;;;;3.41;68.18;100371.81;10498739;28;20052;-66
2021/03/16 22:28:50;;;;;;;4.93;2.22;;;;;;;3.39;68.29;100373.53;10512456;28;20052;-66
2021/03/16 22:34:10;;;;;;;7.22;2.42;;;;;;;3.28;69.20;100372.63;10512463;28;20096;-69
2021/03/16 22:39:31;;;;;;;7.55;2.10;;;;;;;2.92;70.81;100384.63;10496458;28;20131;-68
2021/03/16 22:44:50;;;;;;;5.63;2.38;;;;;;;2.55;71.58;100380.06;10513231;28;20478;-67
2021/03/16 22:50:11;;;;;;;6.13;2.50;;;;;;;2.49;71.87;100365.34;10510787;28;20076;-66
2021/03/16 22:55:31;;;;;;;4.40;2.35;;;;;;;2.69;71.59;100366.28;10510223;28;20052;-68
2021/03/16 23:00:51;;;;;;;3.20;2.08;;;;;;;2.51;71.94;100361.88;10508278;28;20044;-68
2021/03/16 23:06:11;;;;;;;3.15;1.80;;;;;;;2.64;71.66;100356.75;10508198;28;20127;-64
2021/03/16 23:11:30;;;;;;;4.60;2.10;;;;;;;2.40;72.65;100355.75;10507717;28;20045;-66
2021/03/16 23:16:51;;;;;;;3.22;1.85;;;;;;;2.64;71.95;100356.75;10508190;28;20056;-67
2021/03/16 23:22:12;;;;;;;7.65;2.67;;;;;;;2.63;72.67;100360.22;10507322;28;20076;-67
2021/03/16 23:27:31;;;;;;;4.93;2.40;;;;;;;2.75;72.01;100360.28;10508154;28;20052;-67
2021/03/16 23:32:53;;;;;;;4.95;2.58;;;;;;;2.71;71.96;100348.16;10509135;28;20541;-67
2021/03/16 23:38:14;;;;;;;6.70;2.78;;;;;;;2.37;72.65;100355.72;10509311;28;20437;-66
2021/03/16 23:43:34;;;;;;;9.13;2.80;;;;;;;2.43;73.02;100352.31;10507041;28;20041;-67
2021/03/16 23:48:54;;;;;;;8.35;3.25;;;;;;;2.57;72.46;100344.59;10507564;28;20456;-67
2021/03/16 23:54:14;;;;;;;4.10;2.38;;;;;;;2.61;72.83;100354.13;10506959;28;20053;-67
2021/03/16 23:59:33;;;;;;;7.53;3.75;;;;;;;2.58;73.00;100349.81;10505996;28;20040;-66
